Waihola, New Zealand
Current Conditions -  °F | °C
As of 7:00 PM on Friday 24 Oct 2014 (Local Time) from NZCH Reporting Station
Broken Clouds Broken Clouds  
Wind Chill: 41°   Ceiling: 7500
Heat Index: 46°   Visibility: 6mi
Dew Point: 37°   Wind: 10mph
Humidity: 71%   Direction: 210°SSW
Pressure: 30.15"   Gusts: NA
Location:  46.02°S, 170.1°E
Report Text: NZCH 240700Z AUTO 21009KT 9999 SCT036/// BKN075/// BKN090///08/03 Q1021 NOSIG
Loading
Personal Weather Stations






























Interactive Weather Map
Tropical Storm Tracking
New forecast layout! Learn more

10-Day Weather Forecast

Advertisements
Track Severe Weather on mobile